Time;durP1;ratioP1;P1;durP2;ratioP2;P2;SDS_P1;SDS_P2;PMS_P1;PMS_P2;Temp;Humidity;BMP_temperature;BMP_pressure;BME280_temperature;BME280_humidity;BME280_pressure;Samples;Min_cycle;Max_cycle;Signal;HPM_P1;HPM_P2
2022/08/09 00:01:38;;;;;;;;;9.50;8.50;;;;;22.06;47.32;102050.50;4957494;28;45301;-55
2022/08/09 00:04:04;;;;;;;;;9.25;9.00;;;;;22.00;46.93;102048.13;4958743;28;45391;-55
2022/08/09 00:06:30;;;;;;;;;8.50;8.25;;;;;21.94;47.45;102053.75;4959074;28;45231;-55
2022/08/09 00:08:55;;;;;;;;;10.75;9.25;;;;;21.90;46.70;102051.38;4958624;28;46143;-55
2022/08/09 00:11:21;;;;;;;;;10.00;8.75;;;;;21.85;46.83;102055.13;4958727;28;45256;-54
2022/08/09 00:13:48;;;;;;;;;9.00;9.00;;;;;21.84;47.02;102052.56;4959138;28;45189;-55
2022/08/09 00:16:13;;;;;;;;;9.25;9.25;;;;;21.80;48.15;102053.63;4958798;28;45319;-55
2022/08/09 00:18:39;;;;;;;;;9.00;8.00;;;;;21.73;48.33;102054.91;4958196;28;46755;-54
2022/08/09 00:21:06;;;;;;;;;10.75;9.00;;;;;21.69;48.89;102066.59;4957686;28;45455;-54
2022/08/09 00:23:32;;;;;;;;;8.00;8.00;;;;;21.58;49.92;102045.13;4958992;28;45447;-55
2022/08/09 00:25:58;;;;;;;;;9.00;8.75;;;;;21.55;50.06;102046.16;4958670;28;45335;-55
2022/08/09 00:28:23;;;;;;;;;7.50;7.50;;;;;21.54;48.89;102037.38;4958978;28;45423;-54
2022/08/09 00:30:49;;;;;;;;;6.75;6.75;;;;;21.57;48.07;102041.63;4958616;28;45296;-54
2022/08/09 00:33:15;;;;;;;;;7.00;6.00;;;;;21.55;48.99;102036.44;4958292;28;45443;-54
2022/08/09 00:35:40;;;;;;;;;10.00;8.00;;;;;21.52;49.12;102031.31;4958464;28;45268;-54
2022/08/09 00:38:08;;;;;;;;;9.00;7.50;;;;;21.51;48.37;102044.63;4957970;28;46160;-54
2022/08/09 00:40:33;;;;;;;;;7.75;7.75;;;;;21.49;48.03;102042.06;4945110;28;45284;-54
2022/08/09 00:42:59;;;;;;;;;6.00;6.00;;;;;21.47;50.00;102036.00;4958411;28;45217;-54
2022/08/09 00:45:24;;;;;;;;;8.00;6.25;;;;;21.46;49.06;102026.34;4957177;28;50522;-54
2022/08/09 00:47:49;;;;;;;;;8.50;8.50;;;;;21.43;50.34;102034.44;4973833;28;45447;-54
2022/08/09 00:50:15;;;;;;;;;6.50;6.00;;;;;21.38;50.14;102040.88;4953477;28;45671;-55
2022/08/09 00:52:41;;;;;;;;;8.75;7.00;;;;;21.32;50.55;102038.56;4958406;28;45324;-55
2022/08/09 00:55:07;;;;;;;;;6.00;6.00;;;;;21.27;51.66;102038.81;4957792;28;45327;-55
2022/08/09 00:57:33;;;;;;;;;8.00;7.50;;;;;21.28;49.78;102039.66;4958362;28;45884;-55
2022/08/09 00:59:58;;;;;;;;;8.00;8.00;;;;;21.29;49.70;102046.66;4958052;28;45355;-55
2022/08/09 01:02:28;;;;;;;;;7.75;7.00;;;;;21.22;50.04;102039.03;4957713;28;45296;-55
2022/08/09 01:05:11;;;;;;;;;8.25;8.25;;;;;21.23;49.49;102038.09;4957681;28;45348;-55
2022/08/09 01:07:56;;;;;;;;;6.50;6.50;;;;;21.19;50.78;102035.66;4950566;28;46129;-55
2022/08/09 01:10:43;;;;;;;;;8.50;7.25;;;;;21.17;51.73;102040.19;4953472;28;45618;-55
2022/08/09 01:13:13;;;;;;;;;8.00;6.75;;;;;21.14;50.29;102040.34;4970869;28;45252;-55
2022/08/09 01:15:44;;;;;;;;;9.00;9.00;;;;;21.07;52.95;102044.25;4970882;28;45404;-55
2022/08/09 01:18:14;;;;;;;;;7.25;6.75;;;;;21.05;51.05;102041.69;4958399;28;45373;-55
2022/08/09 01:20:51;;;;;;;;;8.25;7.50;;;;;21.03;52.55;102047.97;4958131;28;45772;-55
2022/08/09 01:23:36;;;;;;;;;5.50;5.25;;;;;21.01;51.68;102041.88;4957999;28;45220;-54
2022/08/09 01:26:32;;;;;;;;;8.00;7.00;;;;;20.93;52.93;102040.50;4957613;28;45312;-55
2022/08/09 01:29:00;;;;;;;;;7.75;7.75;;;;;20.89;53.03;102046.00;4957634;28;46926;-55
2022/08/09 01:31:29;;;;;;;;;7.00;7.00;;;;;20.86;52.34;102052.31;4957652;28;45688;-54
2022/08/09 01:33:58;;;;;;;;;10.00;7.25;;;;;20.85;51.69;102044.47;4957941;28;45381;-55
2022/08/09 01:36:25;;;;;;;;;6.75;5.75;;;;;20.83;52.14;102041.91;4958245;28;45464;-59
2022/08/09 01:38:52;;;;;;;;;8.25;6.00;;;;;20.82;53.73;102044.59;4954171;28;45474;-54
2022/08/09 01:41:23;;;;;;;;;8.00;5.50;;;;;20.75;53.54;102040.53;4943723;28;46019;-55
2022/08/09 01:43:51;;;;;;;;;7.00;6.75;;;;;20.71;52.58;102031.91;4951674;28;45447;-55
2022/08/09 01:46:24;;;;;;;;;8.00;7.25;;;;;20.69;52.71;102038.22;4959776;28;45488;-55
2022/08/09 01:48:52;;;;;;;;;7.75;7.25;;;;;20.66;53.00;102044.50;4953366;28;46354;-55
2022/08/09 01:51:20;;;;;;;;;8.00;8.00;;;;;20.63;53.01;102036.75;4948254;28;45413;-54
2022/08/09 01:53:47;;;;;;;;;10.25;7.50;;;;;20.59;52.30;102028.09;4950639;28;45460;-55
2022/08/09 01:56:13;;;;;;;;;5.00;5.00;;;;;20.60;53.34;102031.56;4949177;28;45455;-55
2022/08/09 01:58:41;;;;;;;;;8.50;6.25;;;;;20.59;53.01;102035.16;4950536;28;45470;-54
2022/08/09 02:01:09;;;;;;;;;8.75;7.50;;;;;20.60;52.70;102034.22;4946813;28;45317;-56
2022/08/09 02:03:36;;;;;;;;;7.25;6.50;;;;;20.58;53.69;102041.38;4951905;28;45366;-55
2022/08/09 02:06:04;;;;;;;;;8.00;6.75;;;;;20.55;52.96;102037.09;4951092;28;45455;-55
2022/08/09 02:08:33;;;;;;;;;11.50;10.00;;;;;20.50;54.65;102032.97;4950036;28;46189;-56
2022/08/09 02:11:03;;;;;;;;;7.50;7.00;;;;;20.50;52.71;102033.81;4950174;28;45398;-55
2022/08/09 02:13:30;;;;;;;;;9.25;8.50;;;;;20.48;53.41;102040.13;4950214;28;45295;-55
2022/08/09 02:15:57;;;;;;;;;7.00;7.00;;;;;20.49;55.31;102037.41;4949461;28;45399;-55
2022/08/09 02:18:28;;;;;;;;;10.00;7.00;;;;;20.44;54.86;102042.06;4947734;28;46213;-56
2022/08/09 02:20:57;;;;;;;;;12.75;8.75;;;;;20.40;55.31;102036.94;4951582;28;45966;-55
2022/08/09 02:23:36;;;;;;;;;11.00;11.00;;;;;20.33;54.15;102031.97;4946205;28;45315;-55
2022/08/09 02:26:04;;;;;;;;;9.75;9.00;;;;;20.30;54.60;102036.53;4950599;28;45440;-55
2022/08/09 02:28:38;;;;;;;;;11.50;9.25;;;;;20.24;56.35;102037.69;4949662;28;46342;-55
2022/08/09 02:31:07;;;;;;;;;10.00;9.25;;;;;20.21;54.94;102027.25;4953560;28;45274;-55
2022/08/09 02:33:37;;;;;;;;;9.75;8.25;;;;;20.18;54.79;102030.03;4957172;28;45426;-55
2022/08/09 02:36:06;;;;;;;;;10.25;7.75;;;;;20.19;55.11;102028.25;4957311;28;45272;-55
2022/08/09 02:38:35;;;;;;;;;7.50;7.00;;;;;20.15;56.10;102034.59;4954265;28;46305;-55
2022/08/09 02:41:09;;;;;;;;;8.25;8.25;;;;;20.11;55.20;102038.31;4952887;28;45216;-55
2022/08/09 02:43:38;;;;;;;;;9.75;9.50;;;;;20.13;54.57;102028.56;4949530;28;45199;-54
2022/08/09 02:46:07;;;;;;;;;11.50;11.50;;;;;20.13;54.96;102029.41;4962697;28;45288;-53
2022/08/09 02:48:35;;;;;;;;;10.75;10.00;;;;;20.12;55.19;102030.34;4950601;28;46280;-55
2022/08/09 02:51:02;;;;;;;;;8.50;7.00;;;;;20.11;55.42;102031.25;4951601;28;45439;-55
2022/08/09 02:53:33;;;;;;;;;7.00;5.25;;;;;20.11;55.23;102033.91;4956794;28;45253;-56
2022/08/09 02:55:59;;;;;;;;;10.75;7.25;;;;;20.10;55.68;102024.28;4956650;28;45449;-54
2022/08/09 02:58:31;;;;;;;;;11.50;11.00;;;;;20.01;57.26;102022.91;4956401;28;45255;-55
2022/08/09 03:00:57;;;;;;;;;10.50;9.50;;;;;19.95;55.53;102025.84;4956666;28;45778;-55
2022/08/09 03:03:23;;;;;;;;;7.50;7.50;;;;;19.91;56.16;102031.31;4956630;28;45354;-55
2022/08/09 03:05:50;;;;;;;;;9.00;8.25;;;;;19.89;55.32;102022.63;4956735;28;45557;-55
2022/08/09 03:08:17;;;;;;;;;7.75;7.00;;;;;19.88;56.08;102024.41;4956312;28;46311;-55
2022/08/09 03:10:43;;;;;;;;;11.00;9.25;;;;;19.87;57.74;102027.13;4958955;28;45543;-54
2022/08/09 03:13:09;;;;;;;;;9.50;9.00;;;;;19.86;58.15;102023.63;4959601;28;45383;-55
2022/08/09 03:15:37;;;;;;;;;13.50;11.75;;;;;19.81;57.10;102025.59;4954678;28;45339;-54
2022/08/09 03:18:04;;;;;;;;;10.50;8.75;;;;;19.78;56.97;102022.25;4959120;28;46294;-56
2022/08/09 03:20:30;;;;;;;;;9.75;9.75;;;;;19.73;56.97;102020.69;4959071;28;45817;-56
2022/08/09 03:22:56;;;;;;;;;10.75;10.00;;;;;19.67;57.65;102030.66;4959457;28;45245;-56
2022/08/09 03:25:22;;;;;;;;;9.75;6.25;;;;;19.60;58.25;102024.78;4959175;28;45236;-55
2022/08/09 03:27:50;;;;;;;;;12.00;9.50;;;;;19.58;57.42;102028.41;4959257;28;46398;-56
2022/08/09 03:30:17;;;;;;;;;12.00;11.00;;;;;19.57;56.81;102026.72;4958369;28;47176;-55
2022/08/09 03:32:42;;;;;;;;;9.25;9.25;;;;;19.54;58.33;102027.72;4958078;28;45413;-55
2022/08/09 03:35:11;;;;;;;;;10.00;10.00;;;;;19.55;57.69;102025.94;4954301;28;45334;-55
2022/08/09 03:37:38;;;;;;;;;11.50;10.00;;;;;19.52;57.83;102021.63;4957510;28;46240;-56
2022/08/09 03:40:05;;;;;;;;;11.00;10.75;;;;;19.54;58.29;102018.94;4944468;28;45718;-55
2022/08/09 03:42:31;;;;;;;;;9.75;9.75;;;;;19.54;57.55;102018.94;4945288;28;45579;-55
2022/08/09 03:44:56;;;;;;;;;10.25;10.25;;;;;19.53;57.80;102022.47;4957782;28;45727;-56
2022/08/09 03:47:22;;;;;;;;;11.25;11.25;;;;;19.52;58.46;102021.63;4976040;28;49125;-56
2022/08/09 03:49:49;;;;;;;;;11.00;9.75;;;;;19.50;58.28;102020.84;4958798;28;45286;-56
2022/08/09 03:52:18;;;;;;;;;7.25;7.25;;;;;19.48;58.80;102019.19;4959387;28;45288;-55
2022/08/09 03:54:46;;;;;;;;;8.00;7.75;;;;;19.45;58.86;102022.81;4957300;28;45243;-54
2022/08/09 03:57:14;;;;;;;;;11.75;10.25;;;;;19.45;59.29;102022.81;4959088;28;45383;-56
2022/08/09 03:59:40;;;;;;;;;12.75;10.00;;;;;19.45;57.22;102022.81;4957362;28;45480;-55
2022/08/09 04:02:06;;;;;;;;;9.50;8.25;;;;;19.44;59.24;102021.13;4954563;28;45261;-55
2022/08/09 04:04:33;;;;;;;;;10.50;10.00;;;;;19.42;58.52;102020.28;4958749;28;45304;-55
2022/08/09 04:06:59;;;;;;;;;9.75;8.25;;;;;19.40;58.10;102023.00;4958086;28;45475;-55
2022/08/09 04:09:25;;;;;;;;;10.50;10.50;;;;;19.37;59.45;102027.56;4958098;28;45291;-55
2022/08/09 04:12:04;;;;;;;;;8.75;8.75;;;;;19.36;58.34;102031.97;4959363;28;45401;-55
2022/08/09 04:14:29;;;;;;;;;13.25;11.75;;;;;19.37;58.84;102038.09;4958833;28;45359;-54
2022/08/09 04:16:54;;;;;;;;;8.25;8.25;;;;;19.37;58.59;102044.22;4958675;28;46087;-55
2022/08/09 04:19:20;;;;;;;;;9.25;8.75;;;;;19.37;58.14;102044.22;4958691;28;45202;-54
2022/08/09 04:21:45;;;;;;;;;10.00;9.75;;;;;19.38;59.33;102053.00;4958936;28;45297;-54
2022/08/09 04:24:11;;;;;;;;;9.50;8.75;;;;;19.33;58.90;102045.28;4958250;28;45153;-54
2022/08/09 04:26:36;;;;;;;;;9.00;7.50;;;;;19.29;60.15;102050.78;4959022;28;45895;-52
2022/08/09 04:29:02;;;;;;;;;9.00;9.00;;;;;19.23;59.61;102046.63;4958577;28;45344;-53
2022/08/09 04:31:27;;;;;;;;;12.50;11.25;;;;;19.17;59.50;102036.31;4958889;28;45205;-52
2022/08/09 04:33:53;;;;;;;;;10.00;9.50;;;;;19.13;60.40;102045.28;4958682;28;45494;-52
2022/08/09 04:36:20;;;;;;;;;10.00;10.00;;;;;19.12;61.46;102057.59;4958825;28;45299;-52
2022/08/09 04:38:46;;;;;;;;;13.00;12.00;;;;;19.10;59.84;102048.06;4955557;28;45632;-53
2022/08/09 04:41:11;;;;;;;;;9.75;9.75;;;;;19.08;59.94;102056.03;4948178;28;45265;-53
2022/08/09 04:43:36;;;;;;;;;12.75;11.25;;;;;19.04;61.72;102053.59;4958375;28;45294;-54
2022/08/09 04:46:02;;;;;;;;;10.75;10.75;;;;;19.02;60.31;102055.41;4972006;28;45411;-53
2022/08/09 04:48:27;;;;;;;;;12.00;9.50;;;;;19.01;61.32;102046.66;4973040;28;45455;-54
2022/08/09 04:50:53;;;;;;;;;12.25;10.50;;;;;19.02;61.14;102052.78;4958618;28;45310;-53
2022/08/09 04:53:18;;;;;;;;;9.25;9.00;;;;;19.00;62.29;102058.09;4958269;28;45420;-53
2022/08/09 04:55:43;;;;;;;;;11.25;10.25;;;;;19.00;60.00;102052.00;4958211;28;46188;-53
2022/08/09 04:58:09;;;;;;;;;15.25;12.00;;;;;19.01;60.84;102058.97;4960609;28;45311;-54
2022/08/09 05:00:35;;;;;;;;;9.25;8.75;;;;;19.03;60.69;102065.91;4977730;28;45357;-53
2022/08/09 05:03:02;;;;;;;;;12.00;12.00;;;;;19.05;59.91;102055.31;4962013;28;45257;-54
2022/08/09 05:05:28;;;;;;;;;11.50;11.25;;;;;19.05;59.70;102056.16;4958340;28;45244;-54
2022/08/09 05:07:53;;;;;;;;;10.50;10.00;;;;;19.05;61.23;102057.94;4957922;28;45248;-54
2022/08/09 05:10:19;;;;;;;;;4.00;4.00;;;;;19.08;61.00;102060.44;4956309;28;45245;-53
2022/08/09 05:12:44;;;;;;;;;6.50;6.50;;;;;19.11;61.64;102068.22;4958063;28;45226;-53
2022/08/09 05:15:09;;;;;;;;;17.50;13.00;;;;;19.15;60.14;102060.09;4955463;28;47520;-53
2022/08/09 05:17:35;;;;;;;;;9.75;7.25;;;;;19.17;60.38;102056.56;4955888;28;45626;-53
2022/08/09 05:20:00;;;;;;;;;8.50;8.00;;;;;19.22;60.62;102062.47;4957450;28;45404;-53
2022/08/09 05:22:25;;;;;;;;;13.25;8.00;;;;;19.19;60.82;102054.69;4958124;28;45434;-53
2022/08/09 05:24:51;;;;;;;;;9.50;9.50;;;;;19.21;60.55;102060.75;4957617;28;45903;-54
2022/08/09 05:27:16;;;;;;;;;12.75;10.25;;;;;19.23;60.28;102057.16;4957798;28;45332;-54
2022/08/09 05:29:41;;;;;;;;;9.75;9.75;;;;;19.24;60.12;102061.50;4957967;28;45298;-53
2022/08/09 05:32:07;;;;;;;;;10.50;8.25;;;;;19.28;59.78;102063.09;4956719;28;45451;-55
2022/08/09 05:34:32;;;;;;;;;11.75;10.75;;;;;19.34;59.49;102072.50;4957557;28;46095;-54
2022/08/09 05:37:05;;;;;;;;;10.75;9.00;;;;;19.41;59.59;102068.69;4957843;28;45387;-54
2022/08/09 05:39:31;;;;;;;;;7.50;7.25;;;;;19.45;59.96;102067.66;4949031;28;45392;-54
2022/08/09 05:41:57;;;;;;;;;14.00;6.75;;;;;19.51;59.71;102071.78;4968170;28;45480;-54
2022/08/09 05:44:22;;;;;;;;;10.50;9.75;;;;;19.53;59.89;102075.22;4957752;28;45849;-55
2022/08/09 05:46:47;;;;;;;;;13.00;10.25;;;;;19.53;59.23;102081.34;4974679;28;45308;-54
2022/08/09 05:49:13;;;;;;;;;12.50;10.00;;;;;19.55;58.71;102073.41;4957824;28;45351;-54
2022/08/09 05:51:38;;;;;;;;;7.50;6.75;;;;;19.56;59.42;102083.00;4957613;28;45299;-55
2022/08/09 05:54:03;;;;;;;;;11.00;9.00;;;;;19.56;58.83;102090.94;4957409;28;48483;-54
2022/08/09 05:56:29;;;;;;;;;9.25;8.25;;;;;19.54;60.01;102085.72;4957404;28;45441;-54
2022/08/09 05:58:56;;;;;;;;;14.00;11.00;;;;;19.59;58.98;102085.50;4957628;28;45480;-54
2022/08/09 06:01:26;;;;;;;;;15.00;12.25;;;;;19.59;58.73;102081.09;4957373;28;45256;-53
2022/08/09 06:03:52;;;;;;;;;11.00;9.00;;;;;19.62;59.07;102091.53;4957392;28;45389;-53
2022/08/09 06:06:18;;;;;;;;;9.75;8.75;;;;;19.63;59.08;102090.63;4957232;28;45363;-54
2022/08/09 06:08:43;;;;;;;;;10.75;9.50;;;;;19.71;58.55;102093.75;4967154;28;45443;-56
2022/08/09 06:11:09;;;;;;;;;10.75;9.75;;;;;19.76;58.82;102093.53;4960268;28;45492;-53
2022/08/09 06:13:34;;;;;;;;;10.00;10.00;;;;;19.77;59.11;102087.34;4957614;28;46307;-53
2022/08/09 06:16:01;;;;;;;;;11.00;10.75;;;;;19.78;58.54;102088.19;4957155;28;45269;-54
2022/08/09 06:18:26;;;;;;;;;9.50;9.50;;;;;19.76;59.46;102093.53;4957693;28;45216;-54
2022/08/09 06:20:55;;;;;;;;;12.50;11.50;;;;;19.85;58.87;102092.31;4957106;28;45554;-54
2022/08/09 06:23:22;;;;;;;;;10.75;10.25;;;;;19.87;58.32;102090.44;4957023;28;45516;-53
2022/08/09 06:25:48;;;;;;;;;13.50;10.75;;;;;19.95;58.48;102109.41;4956872;28;45371;-53
2022/08/09 06:28:13;;;;;;;;;13.75;11.25;;;;;20.02;58.05;102110.84;4957321;28;45304;-53
2022/08/09 06:30:39;;;;;;;;;13.00;12.00;;;;;20.04;57.53;102107.25;4956615;28;45482;-53
2022/08/09 06:33:04;;;;;;;;;11.50;10.75;;;;;20.06;57.51;102115.09;4956968;28;46415;-54
2022/08/09 06:35:30;;;;;;;;;8.50;8.50;;;;;20.08;57.67;102115.88;4956833;28;46624;-54
2022/08/09 06:37:55;;;;;;;;;11.00;8.25;;;;;20.06;58.04;102123.00;4957026;28;45273;-53
2022/08/09 06:40:20;;;;;;;;;9.75;9.25;;;;;20.11;57.44;102118.34;4943815;28;45324;-53
2022/08/09 06:42:46;;;;;;;;;8.25;2.25;;;;;20.13;57.77;102111.22;4956523;28;45375;-53
2022/08/09 06:45:11;;;;;;;;;7.00;6.75;;;;;20.17;57.92;102123.34;4958718;28;45416;-53
2022/08/09 06:47:37;;;;;;;;;11.75;10.50;;;;;20.25;57.46;102118.59;4977260;28;45226;-53
2022/08/09 06:50:04;;;;;;;;;16.00;13.00;;;;;20.34;57.18;102122.59;4959467;28;45358;-53
2022/08/09 06:52:29;;;;;;;;;12.75;9.25;;;;;20.47;57.29;102117.63;4959908;28;45318;-54
2022/08/09 06:54:55;;;;;;;;;10.00;10.00;;;;;20.52;57.37;102139.41;4959466;28;45228;-54
2022/08/09 06:57:21;;;;;;;;;11.50;8.75;;;;;20.59;56.80;102130.25;4959878;28;45265;-53
2022/08/09 06:59:46;;;;;;;;;15.00;12.00;;;;;20.63;56.85;102134.47;4959540;28;45461;-55
2022/08/09 07:02:11;;;;;;;;;10.50;9.75;;;;;20.67;56.61;102127.25;4960055;28;45319;-54
2022/08/09 07:04:37;;;;;;;;;17.75;15.00;;;;;20.73;56.38;102135.72;4959338;28;45327;-53
2022/08/09 07:07:03;;;;;;;;;12.50;11.00;;;;;20.74;56.28;102126.88;4960037;28;45517;-54
2022/08/09 07:09:28;;;;;;;;;10.50;8.50;;;;;20.80;56.50;102137.16;4959462;28;45277;-55
2022/08/09 07:11:54;;;;;;;;;10.25;10.25;;;;;20.87;56.17;102132.44;4959540;28;46784;-55
2022/08/09 07:14:19;;;;;;;;;9.50;9.50;;;;;20.93;55.73;102133.00;4959525;28;45299;-55
2022/08/09 07:16:45;;;;;;;;;10.50;10.50;;;;;21.04;55.39;102134.25;4959776;28;45298;-55
2022/08/09 07:19:14;;;;;;;;;14.25;9.75;;;;;21.10;55.67;102140.09;4959833;28;45315;-55
2022/08/09 07:21:39;;;;;;;;;10.75;10.75;;;;;21.16;55.28;102144.22;4958234;28;46965;-54
2022/08/09 07:24:06;;;;;;;;;17.00;9.75;;;;;21.27;55.26;102146.38;4959198;28;45652;-55
2022/08/09 07:26:32;;;;;;;;;14.00;10.50;;;;;21.33;55.12;102144.28;4959768;28;45321;-54
2022/08/09 07:28:58;;;;;;;;;11.75;11.75;;;;;21.41;55.07;102143.88;4972161;28;45577;-54
2022/08/09 07:31:23;;;;;;;;;9.75;9.25;;;;;21.50;54.27;102136.34;4959399;28;45812;-55
2022/08/09 07:33:49;;;;;;;;;7.25;7.25;;;;;21.55;54.49;102126.38;4959401;28;45260;-56
2022/08/09 07:36:14;;;;;;;;;13.25;10.00;;;;;21.67;54.37;102126.69;4959310;28;45309;-56
2022/08/09 07:38:40;;;;;;;;;8.00;8.00;;;;;21.78;53.97;102138.41;4957018;28;45447;-53
2022/08/09 07:41:06;;;;;;;;;17.00;12.50;;;;;21.89;53.74;102129.91;4947826;28;46978;-54
2022/08/09 07:43:32;;;;;;;;;17.25;10.00;;;;;22.04;53.82;102118.56;4959073;28;45283;-54
2022/08/09 07:45:57;;;;;;;;;13.50;10.25;;;;;22.16;53.51;102127.63;4971122;28;45209;-55
2022/08/09 07:48:23;;;;;;;;;11.75;11.00;;;;;22.20;52.88;102123.84;4964145;28;45237;-55
2022/08/09 07:50:48;;;;;;;;;9.25;9.25;;;;;22.27;52.92;102119.97;4959480;28;45178;-54
2022/08/09 07:53:14;;;;;;;;;10.25;9.25;;;;;22.38;52.51;102132.59;4958959;28;45409;-54
2022/08/09 07:55:39;;;;;;;;;12.25;9.50;;;;;22.49;52.28;102122.28;4958840;28;45303;-55
2022/08/09 07:58:04;;;;;;;;;25.50;23.75;;;;;22.61;52.31;102123.38;4949441;28;45485;-55
2022/08/09 08:00:31;;;;;;;;;10.50;8.25;;;;;22.68;51.33;102122.97;4958936;28;46134;-55
2022/08/09 08:02:57;;;;;;;;;8.50;8.00;;;;;22.76;51.33;102119.88;4972006;28;45440;-54
2022/08/09 08:05:23;;;;;;;;;12.75;11.25;;;;;22.86;51.38;102121.09;4959175;28;45331;-54
2022/08/09 08:07:48;;;;;;;;;11.00;8.75;;;;;22.94;51.18;102123.28;4959125;28;45601;-54
2022/08/09 08:10:13;;;;;;;;;11.00;9.75;;;;;22.99;50.50;102118.56;4958813;28;45905;-52
2022/08/09 08:12:42;;;;;;;;;9.25;9.25;;;;;23.08;50.30;102123.38;4959074;28;45284;-53
2022/08/09 08:15:08;;;;;;;;;12.00;10.75;;;;;23.14;50.35;102119.50;4958970;28;45585;-54
2022/08/09 08:17:34;;;;;;;;;11.75;11.25;;;;;23.21;50.07;102126.13;4957663;28;45312;-55
2022/08/09 08:19:59;;;;;;;;;11.00;10.00;;;;;23.31;49.95;102130.81;4987974;28;45430;-56
2022/08/09 08:22:24;;;;;;;;;12.50;9.50;;;;;23.42;49.49;102138.13;4977719;28;45232;-55
2022/08/09 08:24:54;;;;;;;;;16.25;12.50;;;;;23.53;48.61;102132.22;4958247;28;45445;-55
2022/08/09 08:27:23;;;;;;;;;10.25;9.50;;;;;23.61;48.90;102129.97;4957863;28;45460;-54
2022/08/09 08:29:49;;;;;;;;;10.75;9.50;;;;;23.65;48.20;102124.41;4954115;28;46080;-55
2022/08/09 08:32:15;;;;;;;;;14.25;10.00;;;;;23.69;48.41;102133.03;4958663;28;45824;-55
2022/08/09 08:34:40;;;;;;;;;11.75;11.25;;;;;23.74;48.28;102136.25;4958972;28;45686;-54
2022/08/09 08:37:05;;;;;;;;;11.25;8.75;;;;;23.86;47.71;102132.00;4958596;28;45377;-54
2022/08/09 08:39:31;;;;;;;;;10.00;9.00;;;;;23.96;48.34;102136.66;4949554;28;46874;-54
2022/08/09 08:41:57;;;;;;;;;10.00;9.00;;;;;24.08;48.06;102124.41;4954046;28;45349;-54
2022/08/09 08:44:24;;;;;;;;;9.25;9.00;;;;;24.21;47.19;102129.81;4958526;28;46132;-54
2022/08/09 08:46:49;;;;;;;;;9.75;9.00;;;;;24.26;46.79;102136.56;4974962;28;45407;-54
2022/08/09 08:49:15;;;;;;;;;8.50;8.50;;;;;24.32;46.51;102135.34;4958012;28;46852;-54
2022/08/09 08:51:41;;;;;;;;;10.25;9.00;;;;;24.36;45.67;102136.00;4957888;28;45592;-53
2022/08/09 08:54:07;;;;;;;;;8.50;7.00;;;;;24.36;45.62;102125.38;4958450;28;45240;-56
2022/08/09 08:56:37;;;;;;;;;11.00;11.00;;;;;24.42;45.12;102136.44;4957757;28;45291;-56
2022/08/09 08:59:09;;;;;;;;;9.25;8.25;;;;;24.56;45.21;102128.47;4958408;28;46237;-55
2022/08/09 09:01:36;;;;;;;;;12.50;9.00;;;;;24.70;45.59;102124.06;4957906;28;45201;-56
2022/08/09 09:04:08;;;;;;;;;18.25;12.75;;;;;24.78;44.96;102127.91;4957953;28;45285;-58
2022/08/09 09:06:36;;;;;;;;;11.25;9.25;;;;;24.87;44.51;102121.16;4957399;28;45276;-55
2022/08/09 09:09:04;;;;;;;;;7.25;6.50;;;;;25.01;44.65;102133.56;4948131;28;46126;-55
2022/08/09 09:11:30;;;;;;;;;13.25;9.25;;;;;25.04;44.44;102120.09;4972147;28;45519;-55
2022/08/09 09:13:58;;;;;;;;;7.50;7.50;;;;;25.09;45.18;102125.94;4956226;28;45307;-56
2022/08/09 09:16:29;;;;;;;;;10.00;8.50;;;;;25.13;44.75;102130.09;4970516;28;45512;-55
2022/08/09 09:18:54;;;;;;;;;10.75;10.75;;;;;25.17;43.86;102132.44;4956647;28;45555;-56
2022/08/09 09:21:20;;;;;;;;;11.00;10.00;;;;;25.24;44.04;102121.41;4958094;28;45355;-57
2022/08/09 09:23:46;;;;;;;;;8.75;8.75;;;;;25.29;43.39;102129.94;4957548;28;45396;-55
2022/08/09 09:26:14;;;;;;;;;7.75;7.75;;;;;25.30;43.05;102136.94;4956786;28;45289;-55
2022/08/09 09:28:46;;;;;;;;;5.00;5.00;;;;;25.37;43.46;102130.25;4957983;28;46204;-57
2022/08/09 09:31:16;;;;;;;;;6.25;4.25;;;;;25.45;42.85;102112.81;4965987;28;45247;-57
2022/08/09 09:33:42;;;;;;;;;11.00;11.00;;;;;25.55;42.03;102117.50;4961933;28;45252;-56
2022/08/09 09:36:11;;;;;;;;;11.75;11.25;;;;;25.61;42.34;102123.25;4957832;28;45366;-57
2022/08/09 09:38:43;;;;;;;;;8.00;6.00;;;;;25.69;42.42;102115.63;4956066;28;46246;-57
2022/08/09 09:41:09;;;;;;;;;10.50;9.50;;;;;25.82;42.55;102115.59;4947132;28;45336;-55
2022/08/09 09:43:35;;;;;;;;;7.25;7.25;;;;;25.93;42.48;102114.88;4957927;28;45455;-56
2022/08/09 09:46:04;;;;;;;;;10.50;10.50;;;;;26.03;42.51;102107.94;4970606;28;45612;-57
2022/08/09 09:48:29;;;;;;;;;7.25;6.00;;;;;26.08;40.80;102113.78;4959266;28;46474;-56
2022/08/09 09:50:55;;;;;;;;;11.00;9.50;;;;;26.13;41.37;102113.47;4958327;28;45216;-55
2022/08/09 09:53:24;;;;;;;;;8.75;8.75;;;;;26.11;41.36;102115.38;4958571;28;45491;-56
2022/08/09 09:55:56;;;;;;;;;7.75;7.75;;;;;26.13;40.68;102108.97;4966323;28;45526;-56
2022/08/09 09:58:22;;;;;;;;;9.00;9.00;;;;;26.18;40.41;102096.16;4957008;28;47186;-56
2022/08/09 10:00:51;;;;;;;;;8.00;8.00;;;;;26.27;40.25;102100.00;4957477;28;45337;-54
2022/08/09 10:03:17;;;;;;;;;9.00;9.00;;;;;26.30;40.01;102094.44;4957555;28;45267;-53
2022/08/09 10:05:59;;;;;;;;;8.75;8.75;;;;;26.41;39.99;102096.34;4957525;28;45434;-56
2022/08/09 10:08:24;;;;;;;;;10.75;8.25;;;;;26.45;39.84;102106.69;4951433;28;46253;-55
2022/08/09 10:10:50;;;;;;;;;9.50;8.75;;;;;26.49;40.07;102104.66;4960107;28;45267;-56
2022/08/09 10:13:16;;;;;;;;;11.25;10.25;;;;;26.56;40.06;102098.75;4949941;28;45259;-57
2022/08/09 10:15:50;;;;;;;;;9.00;7.00;;;;;26.58;39.36;102096.81;4969886;28;46126;-54
2022/08/09 10:18:16;;;;;;;;;9.00;7.50;;;;;26.60;39.21;102104.72;4956844;28;46346;-53
2022/08/09 10:20:42;;;;;;;;;9.75;8.75;;;;;26.64;38.91;102090.22;4956323;28;45524;-55
2022/08/09 10:23:17;;;;;;;;;11.50;9.00;;;;;26.74;38.76;102093.03;4956615;28;45263;-51
2022/08/09 10:25:45;;;;;;;;;10.75;9.75;;;;;26.86;39.10;102087.66;4956862;28;45550;-53
2022/08/09 10:28:11;;;;;;;;;8.25;6.50;;;;;26.95;38.66;102086.09;4956768;28;45284;-56
2022/08/09 10:30:37;;;;;;;;;12.75;11.50;;;;;27.04;38.80;102089.94;4956540;28;45395;-56
2022/08/09 10:33:03;;;;;;;;;9.00;8.50;;;;;27.13;38.76;102095.41;4957033;28;45343;-57
2022/08/09 10:35:29;;;;;;;;;10.75;10.75;;;;;27.24;38.48;102083.94;4956847;28;45523;-58
2022/08/09 10:37:58;;;;;;;;;9.00;8.25;;;;;27.30;36.81;102098.63;4956954;28;45328;-55
2022/08/09 10:40:23;;;;;;;;;10.25;10.00;;;;;27.38;37.91;102094.38;4943329;28;45623;-57
2022/08/09 10:42:49;;;;;;;;;9.75;9.75;;;;;27.43;37.47;102086.88;4955494;28;45266;-58
2022/08/09 10:45:16;;;;;;;;;10.00;10.00;;;;;27.46;37.60;102081.31;4956702;28;45228;-58
2022/08/09 10:47:53;;;;;;;;;10.00;9.25;;;;;27.40;36.94;102071.06;4969869;28;46317;-56
2022/08/09 10:51:05;;;;;;;;;6.25;5.75;;;;;27.40;36.43;102081.75;4969915;28;45592;-49
2022/08/09 10:53:54;;;;;;;;;8.75;8.75;;;;;27.52;36.29;102078.16;4970263;28;45544;-59
2022/08/09 10:56:25;;;;;;;;;10.25;7.50;;;;;27.62;36.72;102064.06;4956680;28;45783;-57
2022/08/09 10:58:52;;;;;;;;;11.00;8.25;;;;;27.70;36.57;102069.69;4956373;28;45285;-57
2022/08/09 11:01:32;;;;;;;;;9.75;9.25;;;;;27.79;36.03;102075.16;4956187;28;45362;-59
2022/08/09 11:04:19;;;;;;;;;9.50;8.75;;;;;27.89;36.81;102067.25;4956176;28;45383;-57
2022/08/09 11:06:47;;;;;;;;;9.25;9.25;;;;;27.94;36.05;102075.75;4955868;28;45394;-61
2022/08/09 11:09:16;;;;;;;;;9.00;8.50;;;;;28.03;35.50;102069.69;4955916;28;45412;-60
2022/08/09 11:11:54;;;;;;;;;9.25;8.25;;;;;28.19;35.47;102078.16;4956566;28;46068;-59
2022/08/09 11:14:55;;;;;;;;;10.00;9.00;;;;;28.26;35.40;102080.38;4956455;28;45177;-59
2022/08/09 11:17:20;;;;;;;;;9.25;9.25;;;;;28.33;35.60;102073.56;4954323;28;45499;-62
2022/08/09 11:19:48;;;;;;;;;8.67;8.33;;;;;28.40;35.25;102066.72;4955626;28;45442;-59
2022/08/09 11:22:17;;;;;;;;;11.75;9.00;;;;;28.52;34.60;102067.53;4956038;28;45897;-60